Time;durP1;ratioP1;P1;durP2;ratioP2;P2;SDS_P1;SDS_P2;PMS_P1;PMS_P2;Temp;Humidity;BMP_temperature;BMP_pressure;BME280_temperature;BME280_humidity;BME280_pressure;Samples;Min_cycle;Max_cycle;Signal;HPM_P1;HPM_P2
2023/07/20 00:02:09;;;;;;;21.02;14.75;;;;;;;16.51;100.00;101274.66;5052836;28;20037;-66
2023/07/20 00:04:35;;;;;;;22.60;15.15;;;;;;;16.49;100.00;101276.97;5052465;28;20024;-66
2023/07/20 00:07:03;;;;;;;22.23;15.18;;;;;;;16.42;100.00;101276.69;5051905;28;20156;-67
2023/07/20 00:09:28;;;;;;;22.95;15.02;;;;;;;16.44;100.00;101271.59;5052064;28;20478;-66
2023/07/20 00:11:54;;;;;;;21.95;15.43;;;;;;;16.49;100.00;101282.56;5051982;28;20108;-66
2023/07/20 00:14:19;;;;;;;22.55;14.90;;;;;;;16.57;100.00;101275.28;5050529;28;20516;-67
2023/07/20 00:16:46;;;;;;;22.50;15.40;;;;;;;16.61;100.00;101278.22;5051873;28;20068;-67
2023/07/20 00:19:16;;;;;;;21.80;15.85;;;;;;;16.66;100.00;101272.47;5051832;28;20028;-67
2023/07/20 00:21:42;;;;;;;21.42;15.60;;;;;;;16.72;100.00;101270.31;5051829;28;20319;-67
2023/07/20 00:24:08;;;;;;;22.48;15.52;;;;;;;16.75;100.00;101272.41;5051748;28;20036;-67
2023/07/20 00:26:33;;;;;;;23.98;16.27;;;;;;;16.78;100.00;101272.53;5051659;28;20032;-67
2023/07/20 00:28:58;;;;;;;23.75;16.50;;;;;;;16.72;100.00;101273.09;5051819;28;20040;-68
2023/07/20 00:31:23;;;;;;;22.52;15.93;;;;;;;16.66;100.00;101273.28;5051657;28;20120;-68
2023/07/20 00:33:49;;;;;;;23.60;16.30;;;;;;;16.60;100.00;101282.19;5051611;28;20036;-68
2023/07/20 00:36:14;;;;;;;24.42;15.88;;;;;;;16.57;100.00;101271.69;5051469;28;20393;-69
2023/07/20 00:38:40;;;;;;;24.45;15.57;;;;;;;16.55;100.00;101271.22;5051476;28;20025;-69
2023/07/20 00:41:06;;;;;;;23.50;16.35;;;;;;;16.56;100.00;101270.88;5051732;28;20025;-69
2023/07/20 00:43:31;;;;;;;23.90;16.48;;;;;;;16.51;100.00;101269.09;5051439;28;20116;-69
2023/07/20 00:45:56;;;;;;;22.48;16.95;;;;;;;16.44;100.00;101273.53;5051376;28;20136;-68
2023/07/20 00:48:22;;;;;;;25.02;17.20;;;;;;;16.30;100.00;101284.94;5049956;28;20480;-69
2023/07/20 00:50:48;;;;;;;25.13;16.50;;;;;;;16.13;100.00;101278.28;5051261;28;20492;-68
2023/07/20 00:53:14;;;;;;;23.25;17.27;;;;;;;16.00;100.00;101273.75;5051131;28;20388;-69
2023/07/20 00:55:39;;;;;;;24.55;17.90;;;;;;;15.95;100.00;101277.53;5051223;28;20108;-69
2023/07/20 00:58:05;;;;;;;22.58;16.90;;;;;;;15.90;100.00;101278.53;5051173;28;20024;-69
2023/07/20 01:00:30;;;;;;;24.30;16.77;;;;;;;15.90;100.00;101286.91;5051254;28;20397;-69
2023/07/20 01:02:55;;;;;;;22.63;16.85;;;;;;;15.88;100.00;101274.41;5049781;28;20411;-69
2023/07/20 01:05:24;;;;;;;23.95;17.17;;;;;;;15.81;100.00;101285.22;5050956;28;20059;-69
2023/07/20 01:07:58;;;;;;;22.45;17.30;;;;;;;15.79;100.00;101281.94;5050974;28;20531;-69
2023/07/20 01:10:33;;;;;;;23.52;17.05;;;;;;;15.75;100.00;101284.59;5050932;28;20131;-69
2023/07/20 01:13:01;;;;;;;24.05;17.58;;;;;;;15.72;100.00;101288.84;5050980;28;20469;-69
2023/07/20 01:15:26;;;;;;;24.38;19.13;;;;;;;15.70;100.00;101284.78;5050799;28;20033;-69
2023/07/20 01:17:52;;;;;;;24.42;17.00;;;;;;;15.69;100.00;101294.28;5050874;28;20024;-69
2023/07/20 01:20:22;;;;;;;26.05;18.73;;;;;;;15.67;100.00;101285.41;5050765;28;20028;-69
2023/07/20 01:22:50;;;;;;;24.75;18.33;;;;;;;15.69;100.00;101289.50;5051064;28;20036;-69
2023/07/20 01:25:33;;;;;;;24.13;18.80;;;;;;;15.67;100.00;101282.63;5050832;28;20033;-69
2023/07/20 01:28:17;;;;;;;24.73;19.05;;;;;;;15.61;100.00;101287.56;5049372;28;20512;-69
2023/07/20 01:30:55;;;;;;;25.15;19.45;;;;;;;15.60;100.00;101288.69;5050700;28;20033;-69
2023/07/20 01:33:21;;;;;;;27.15;19.60;;;;;;;15.57;100.00;101295.75;5050815;28;20024;-69
2023/07/20 01:35:54;;;;;;;24.55;19.35;;;;;;;15.56;100.00;101296.09;5050831;28;20063;-69
2023/07/20 01:38:21;;;;;;;28.10;20.67;;;;;;;15.53;100.00;101286.44;5050902;28;20033;-68
2023/07/20 01:40:46;;;;;;;27.02;20.98;;;;;;;15.52;100.00;101287.59;5050795;28;20025;-68
2023/07/20 01:43:12;;;;;;;25.85;20.67;;;;;;;15.47;100.00;101295.28;5050586;28;20021;-69
2023/07/20 01:45:38;;;;;;;26.65;21.58;;;;;;;15.38;100.00;101296.13;5050634;28;20063;-68
2023/07/20 01:48:04;;;;;;;29.35;23.77;;;;;;;15.25;100.00;101288.72;5050444;28;20052;-69
2023/07/20 01:50:29;;;;;;;28.75;23.13;;;;;;;15.23;100.00;101294.63;5050605;28;20025;-68
2023/07/20 01:52:54;;;;;;;29.88;22.88;;;;;;;15.17;100.00;101292.31;5050552;28;20071;-68
2023/07/20 01:55:20;;;;;;;28.35;24.05;;;;;;;15.16;100.00;101301.81;5050460;28;20108;-68
2023/07/20 01:57:45;;;;;;;28.80;23.13;;;;;;;15.11;100.00;101295.25;5050420;28;20041;-68
2023/07/20 02:00:12;;;;;;;28.05;24.17;;;;;;;15.12;100.00;101296.91;5050498;28;20026;-69
2023/07/20 02:02:37;;;;;;;29.67;23.42;;;;;;;15.09;100.00;101296.72;5050595;28;20029;-68
2023/07/20 02:05:02;;;;;;;27.02;21.95;;;;;;;15.15;100.00;101302.97;5050513;28;20031;-68
2023/07/20 02:07:28;;;;;;;29.65;22.88;;;;;;;15.16;100.00;101301.81;5050402;28;20028;-69
2023/07/20 02:09:53;;;;;;;30.13;23.67;;;;;;;15.18;100.00;101299.53;5050329;28;20032;-68
2023/07/20 02:12:18;;;;;;;29.10;23.30;;;;;;;15.10;100.00;101302.00;5050239;28;20112;-68
2023/07/20 02:14:43;;;;;;;30.90;23.45;;;;;;;15.07;100.00;101301.81;5050263;28;20025;-68
2023/07/20 02:17:10;;;;;;;29.40;24.08;;;;;;;15.02;100.00;101305.56;5050329;28;20066;-68
2023/07/20 02:19:36;;;;;;;27.35;22.95;;;;;;;15.00;100.00;101312.63;5052563;28;20053;-68
2023/07/20 02:22:02;;;;;;;29.10;23.65;;;;;;;14.95;100.00;101306.06;5054114;28;20040;-68
2023/07/20 02:24:27;;;;;;;29.10;24.27;;;;;;;14.97;100.00;101311.31;5054008;28;20048;-68
2023/07/20 02:26:52;;;;;;;28.35;23.20;;;;;;;15.01;100.00;101305.91;5053742;28;20152;-68
2023/07/20 02:29:18;;;;;;;28.50;22.48;;;;;;;15.04;100.00;101306.06;5052503;28;20037;-69
2023/07/20 02:31:43;;;;;;;28.90;22.20;;;;;;;15.04;100.00;101300.50;5053805;28;20052;-68
2023/07/20 02:34:09;;;;;;;29.33;24.38;;;;;;;15.00;100.00;101301.47;5053762;28;20021;-68
2023/07/20 02:36:35;;;;;;;28.58;22.90;;;;;;;15.04;100.00;101319.19;5053671;28;20025;-68
2023/07/20 02:39:03;;;;;;;26.90;22.10;;;;;;;15.07;100.00;101318.53;5053805;28;20029;-69
2023/07/20 02:41:29;;;;;;;27.20;21.40;;;;;;;15.05;100.00;101321.66;5053670;28;20032;-68
2023/07/20 02:43:56;;;;;;;27.58;21.73;;;;;;;15.00;100.00;101320.97;5053663;28;20086;-67
2023/07/20 02:46:21;;;;;;;28.23;23.20;;;;;;;14.97;100.00;101316.88;5053784;28;20025;-67
2023/07/20 02:48:46;;;;;;;29.15;23.05;;;;;;;14.90;100.00;101319.34;5053472;28;20033;-67
2023/07/20 02:51:12;;;;;;;27.75;22.42;;;;;;;14.82;100.00;101319.00;5053508;28;20023;-67
2023/07/20 02:53:38;;;;;;;29.63;24.27;;;;;;;14.83;100.00;101330.94;5053528;28;20443;-67
2023/07/20 02:56:03;;;;;;;29.30;23.05;;;;;;;14.85;100.00;101337.00;5053337;28;20119;-67
2023/07/20 02:58:28;;;;;;;28.80;23.35;;;;;;;14.89;100.00;101331.63;5053484;28;20068;-68
2023/07/20 03:00:54;;;;;;;27.95;23.08;;;;;;;14.89;100.00;101338.00;5053383;28;20033;-68
2023/07/20 03:03:19;;;;;;;29.13;23.27;;;;;;;14.90;100.00;101344.41;5053291;28;20021;-68
2023/07/20 03:05:45;;;;;;;28.42;23.73;;;;;;;14.96;100.00;101346.72;5053451;28;20445;-68
2023/07/20 03:08:10;;;;;;;29.98;24.40;;;;;;;14.99;100.00;101350.81;5053214;28;20437;-68
2023/07/20 03:10:40;;;;;;;29.42;23.98;;;;;;;14.94;100.00;101340.66;5053214;28;20025;-67
2023/07/20 03:13:06;;;;;;;29.40;24.10;;;;;;;15.00;100.00;101354.41;5053192;28;20441;-67
2023/07/20 03:15:31;;;;;;;27.85;22.98;;;;;;;15.00;100.00;101354.41;5052940;28;20107;-68
2023/07/20 03:17:58;;;;;;;27.08;23.05;;;;;;;14.97;100.00;101359.47;5053080;28;20116;-68
2023/07/20 03:20:24;;;;;;;27.83;22.83;;;;;;;14.86;100.00;101355.38;5051486;28;20025;-67
2023/07/20 03:22:49;;;;;;;29.30;23.25;;;;;;;14.79;100.00;101358.63;5052931;28;20037;-68
2023/07/20 03:25:14;;;;;;;26.73;22.83;;;;;;;14.75;100.00;101356.81;5052940;28;20041;-68
2023/07/20 03:27:40;;;;;;;26.10;22.90;;;;;;;14.72;100.00;101352.72;5052440;28;20488;-68
2023/07/20 03:30:07;;;;;;;27.95;21.58;;;;;;;14.66;100.00;101356.72;5052081;28;20025;-67
2023/07/20 03:32:32;;;;;;;26.38;21.35;;;;;;;14.54;100.00;101354.56;5052808;28;20091;-68
2023/07/20 03:34:57;;;;;;;28.27;21.67;;;;;;;14.48;100.00;101359.44;5052490;28;20029;-68
2023/07/20 03:37:23;;;;;;;26.08;21.15;;;;;;;14.45;100.00;101364.84;5052439;28;20111;-68
2023/07/20 03:39:48;;;;;;;26.80;21.58;;;;;;;14.41;100.00;101359.09;5052184;28;20017;-68
2023/07/20 03:42:14;;;;;;;26.23;21.25;;;;;;;14.35;100.00;101366.75;5052338;28;20131;-68
2023/07/20 03:44:39;;;;;;;25.50;21.88;;;;;;;14.31;100.00;101360.16;5052355;28;20032;-68
2023/07/20 03:47:05;;;;;;;25.75;21.00;;;;;;;14.28;100.00;101363.59;5052242;28;20546;-67
2023/07/20 03:49:30;;;;;;;25.60;21.98;;;;;;;14.18;100.00;101369.44;5052318;28;20029;-68
2023/07/20 03:51:56;;;;;;;24.92;21.05;;;;;;;14.14;100.00;101372.03;5052163;28;20017;-67
2023/07/20 03:54:21;;;;;;;25.50;20.33;;;;;;;14.14;100.00;101374.81;5052058;28;20033;-68
2023/07/20 03:56:46;;;;;;;23.10;18.90;;;;;;;14.09;100.00;101372.16;5052102;28;20021;-68
2023/07/20 03:59:12;;;;;;;24.20;18.83;;;;;;;14.10;100.00;101384.94;5051992;28;20051;-67
2023/07/20 04:01:39;;;;;;;23.27;18.48;;;;;;;14.06;100.00;101375.59;5051997;28;20051;-68
2023/07/20 04:04:07;;;;;;;23.95;18.83;;;;;;;14.02;100.00;101378.19;5052000;28;20035;-68
2023/07/20 04:06:33;;;;;;;24.25;17.60;;;;;;;14.08;100.00;101389.16;5051887;28;20028;-67
2023/07/20 04:08:58;;;;;;;24.13;17.73;;;;;;;14.09;100.00;101379.69;5050461;28;20041;-67
2023/07/20 04:11:24;;;;;;;23.67;17.85;;;;;;;14.11;100.00;101380.19;5052017;28;20051;-68
2023/07/20 04:13:49;;;;;;;22.67;16.80;;;;;;;14.14;100.00;101380.38;5051868;28;20441;-68
2023/07/20 04:16:14;;;;;;;22.67;17.08;;;;;;;14.22;100.00;101391.88;5051676;28;20377;-67
2023/07/20 04:18:40;;;;;;;22.67;16.83;;;;;;;14.14;100.00;101388.72;5051591;28;20033;-68
2023/07/20 04:21:07;;;;;;;23.80;17.50;;;;;;;14.16;100.00;101380.91;5051769;28;20036;-67
2023/07/20 04:23:33;;;;;;;23.88;17.80;;;;;;;14.13;100.00;101386.25;5051651;28;20033;-67
2023/07/20 04:25:58;;;;;;;24.05;17.63;;;;;;;14.11;100.00;101381.00;5051555;28;20044;-67
2023/07/20 04:28:23;;;;;;;22.80;17.50;;;;;;;14.15;100.00;101379.25;5051379;28;20083;-67
2023/07/20 04:30:49;;;;;;;23.45;18.30;;;;;;;14.19;100.00;101383.03;5051596;28;20030;-67
2023/07/20 04:33:14;;;;;;;22.27;17.40;;;;;;;14.26;100.00;101381.78;5051547;28;20028;-66
2023/07/20 04:35:47;;;;;;;22.33;17.05;;;;;;;14.32;100.00;101395.22;5051363;28;20425;-67
2023/07/20 04:38:15;;;;;;;23.02;17.55;;;;;;;14.30;100.00;101382.75;5051507;28;20108;-67
2023/07/20 04:40:40;;;;;;;23.15;17.13;;;;;;;14.20;100.00;101395.81;5051689;28;20020;-68
2023/07/20 04:43:06;;;;;;;22.88;17.20;;;;;;;14.15;100.00;101392.31;5049417;28;20033;-68
2023/07/20 04:45:31;;;;;;;22.45;16.50;;;;;;;14.13;100.00;101394.59;5051290;28;20181;-68
2023/07/20 04:47:56;;;;;;;23.00;16.67;;;;;;;14.12;100.00;101390.19;5051149;28;20044;-68
2023/07/20 04:50:24;;;;;;;23.50;17.40;;;;;;;14.08;100.00;101389.97;5051127;28;20388;-67
2023/07/20 04:52:49;;;;;;;25.13;16.67;;;;;;;14.17;100.00;101388.06;5051109;28;20025;-68
2023/07/20 04:55:15;;;;;;;22.98;15.80;;;;;;;14.22;100.00;101384.34;5051104;28;20025;-68
2023/07/20 04:57:40;;;;;;;22.45;16.75;;;;;;;14.26;100.00;101390.94;5051065;28;20033;-68
2023/07/20 05:00:06;;;;;;;21.63;16.85;;;;;;;14.35;100.00;101382.66;5051038;28;20024;-67
2023/07/20 05:02:31;;;;;;;21.83;15.90;;;;;;;14.43;100.00;101381.88;5051012;28;20021;-68
2023/07/20 05:04:57;;;;;;;21.73;16.17;;;;;;;14.41;100.00;101386.91;5050990;28;20033;-68
2023/07/20 05:07:22;;;;;;;22.02;15.90;;;;;;;14.41;100.00;101383.31;5050870;28;20025;-70
2023/07/20 05:09:47;;;;;;;22.48;16.10;;;;;;;14.41;100.00;101386.09;5050904;28;20415;-68
2023/07/20 05:12:13;;;;;;;22.02;16.40;;;;;;;14.45;100.00;101384.31;5050836;28;20033;-68
2023/07/20 05:14:38;;;;;;;21.92;16.58;;;;;;;14.51;100.00;101381.09;5050752;28;20556;-68
2023/07/20 05:17:04;;;;;;;21.42;16.17;;;;;;;14.52;100.00;101387.47;5050765;28;20044;-68
2023/07/20 05:19:30;;;;;;;21.65;16.10;;;;;;;14.56;100.00;101382.06;5050891;28;20036;-68
2023/07/20 05:21:55;;;;;;;22.15;16.15;;;;;;;14.57;100.00;101390.13;5050772;28;20029;-68
2023/07/20 05:24:21;;;;;;;21.58;15.65;;;;;;;14.55;100.00;101395.19;5050775;28;20131;-68
2023/07/20 05:26:47;;;;;;;22.60;16.40;;;;;;;14.65;100.00;101391.28;5050773;28;20047;-68
2023/07/20 05:29:13;;;;;;;22.15;16.25;;;;;;;14.71;100.00;101389.22;5050930;28;20112;-68
2023/07/20 05:31:38;;;;;;;22.50;16.00;;;;;;;14.71;100.00;101380.84;5050766;28;20170;-68
2023/07/20 05:34:03;;;;;;;22.85;17.20;;;;;;;14.69;100.00;101386.75;5050855;28;20029;-68
2023/07/20 05:36:30;;;;;;;22.45;17.63;;;;;;;14.66;100.00;101388.22;5049260;28;20405;-68
2023/07/20 05:38:56;;;;;;;22.40;17.02;;;;;;;14.74;100.00;101394.97;5050470;28;20033;-68
2023/07/20 05:41:22;;;;;;;21.80;16.42;;;;;;;14.79;100.00;101402.34;5049208;28;20044;-68
2023/07/20 05:43:48;;;;;;;23.38;17.40;;;;;;;14.83;100.00;101400.56;5050508;28;20112;-68
2023/07/20 05:46:13;;;;;;;22.02;16.30;;;;;;;14.85;100.00;101411.38;5050706;28;20044;-68
2023/07/20 05:48:38;;;;;;;21.48;16.15;;;;;;;14.81;100.00;101409.25;5050674;28;20061;-68
2023/07/20 05:51:04;;;;;;;21.42;16.55;;;;;;;14.86;100.00;101408.28;5050523;28;20057;-67
2023/07/20 05:53:29;;;;;;;22.02;16.42;;;;;;;15.06;100.00;101412.44;5051293;28;20384;-68
2023/07/20 05:55:54;;;;;;;25.52;16.20;;;;;;;15.26;100.00;101415.78;5054620;28;20067;-68
2023/07/20 05:58:20;;;;;;;21.23;15.80;;;;;;;15.38;100.00;101423.50;5054722;28;20144;-68
2023/07/20 06:00:49;;;;;;;21.83;16.40;;;;;;;15.39;100.00;101420.41;5054710;28;20051;-69
2023/07/20 06:03:16;;;;;;;22.08;15.85;;;;;;;15.36;100.00;101423.84;5054634;28;20032;-68
2023/07/20 06:05:42;;;;;;;21.73;16.00;;;;;;;15.41;100.00;101418.09;5054506;28;20083;-68
2023/07/20 06:08:07;;;;;;;21.10;15.68;;;;;;;15.47;100.00;101415.97;5054461;28;20432;-68
2023/07/20 06:10:33;;;;;;;21.42;16.08;;;;;;;15.57;100.00;101415.69;5054366;28;20495;-68
2023/07/20 06:12:58;;;;;;;22.13;16.52;;;;;;;15.53;100.00;101430.59;5054428;28;20057;-67
2023/07/20 06:15:26;;;;;;;20.92;16.08;;;;;;;15.51;100.00;101428.16;5054183;28;20055;-68
2023/07/20 06:17:51;;;;;;;22.75;16.55;;;;;;;15.56;100.00;101425.19;5054328;28;20068;-68
2023/07/20 06:20:16;;;;;;;23.17;17.05;;;;;;;15.58;100.00;101424.88;5054128;28;20495;-68
2023/07/20 06:22:42;;;;;;;22.85;17.05;;;;;;;15.53;100.00;101430.59;5053919;28;20029;-68
2023/07/20 06:25:07;;;;;;;23.15;18.17;;;;;;;15.57;100.00;101428.81;5053634;28;20100;-68
2023/07/20 06:27:33;;;;;;;21.25;16.80;;;;;;;15.51;100.00;101430.94;5053522;28;20041;-67
2023/07/20 06:29:58;;;;;;;22.58;17.48;;;;;;;15.49;100.00;101437.97;5053503;28;20100;-67
2023/07/20 06:32:23;;;;;;;22.70;17.45;;;;;;;15.64;100.00;101439.47;5053525;28;20028;-68
2023/07/20 06:34:49;;;;;;;22.88;17.88;;;;;;;15.76;100.00;101439.66;5053434;28;20064;-68
2023/07/20 06:37:14;;;;;;;23.70;18.17;;;;;;;15.83;100.00;101431.59;5052138;28;20116;-68
2023/07/20 06:39:39;;;;;;;22.88;18.35;;;;;;;15.97;100.00;101431.47;5053409;28;20383;-67
2023/07/20 06:42:05;;;;;;;23.98;17.33;;;;;;;16.01;100.00;101429.66;5053428;28;20044;-68
2023/07/20 06:44:31;;;;;;;21.65;17.13;;;;;;;16.11;100.00;101433.28;5053346;28;20025;-67
2023/07/20 06:46:56;;;;;;;23.17;17.77;;;;;;;16.16;100.00;101424.72;5053452;28;20036;-67
2023/07/20 06:49:26;;;;;;;23.27;18.10;;;;;;;16.16;100.00;101433.09;5053006;28;20025;-68
2023/07/20 06:51:51;;;;;;;22.63;17.35;;;;;;;16.13;100.00;101430.97;5053263;28;20075;-66
2023/07/20 06:54:17;;;;;;;21.27;16.23;;;;;;;16.05;100.00;101429.81;5051830;28;20124;-67
2023/07/20 06:56:42;;;;;;;21.50;16.02;;;;;;;16.02;100.00;101427.69;5053087;28;20434;-68
2023/07/20 06:59:07;;;;;;;20.23;15.23;;;;;;;16.02;100.00;101431.31;5053171;28;20028;-68
2023/07/20 07:01:33;;;;;;;20.27;15.10;;;;;;;16.20;100.00;101426.50;5053096;28;20029;-67
2023/07/20 07:03:58;;;;;;;18.85;13.05;;;;;;;16.34;98.58;101437.50;5052914;28;20036;-67
2023/07/20 07:06:23;;;;;;;18.17;12.55;;;;;;;16.52;97.90;101441.09;5052758;28;20087;-68
2023/07/20 07:08:49;;;;;;;19.60;13.60;;;;;;;16.68;98.75;101438.56;5053198;28;20528;-67
2023/07/20 07:11:14;;;;;;;20.42;15.05;;;;;;;16.87;100.00;101442.94;5053093;28;20033;-68
2023/07/20 07:13:39;;;;;;;20.85;14.98;;;;;;;17.02;99.27;101432.38;5052869;28;20075;-68
2023/07/20 07:16:04;;;;;;;21.17;15.90;;;;;;;17.19;100.00;101434.28;5052622;28;20472;-67
2023/07/20 07:18:30;;;;;;;20.40;15.45;;;;;;;17.05;97.44;101443.72;5052780;28;20083;-67
2023/07/20 07:20:55;;;;;;;20.55;14.75;;;;;;;17.00;98.10;101449.50;5052603;28;20033;-68
2023/07/20 07:23:21;;;;;;;21.13;14.52;;;;;;;16.99;98.01;101451.50;5052712;28;20507;-67
2023/07/20 07:25:46;;;;;;;21.13;15.05;;;;;;;17.05;98.77;101448.50;5052703;28;20106;-68
2023/07/20 07:28:12;;;;;;;20.70;15.27;;;;;;;17.22;98.53;101442.00;5052494;28;20055;-68
2023/07/20 07:30:38;;;;;;;20.63;15.90;;;;;;;17.44;97.04;101452.06;5052694;28;20098;-68
2023/07/20 07:33:03;;;;;;;22.45;15.85;;;;;;;17.71;95.42;101453.50;5051030;28;20432;-68
2023/07/20 07:35:29;;;;;;;21.30;15.15;;;;;;;18.03;93.74;101450.38;5052371;28;20017;-68
2023/07/20 07:37:54;;;;;;;18.92;12.70;;;;;;;18.14;87.03;101459.16;5052517;28;20270;-67
2023/07/20 07:40:20;;;;;;;18.52;12.90;;;;;;;18.22;87.65;101455.44;5052412;28;20040;-67
2023/07/20 07:42:45;;;;;;;17.42;11.25;;;;;;;18.17;84.06;101450.06;5052125;28;20078;-66
2023/07/20 07:45:10;;;;;;;18.17;12.50;;;;;;;18.01;86.29;101455.47;5052201;28;20074;-66
2023/07/20 07:47:36;;;;;;;18.73;13.10;;;;;;;18.05;87.52;101462.00;5052140;28;20106;-66
2023/07/20 07:50:02;;;;;;;19.05;12.73;;;;;;;18.11;88.24;101451.44;5052079;28;20037;-66
2023/07/20 07:52:27;;;;;;;18.05;12.35;;;;;;;18.18;87.46;101457.31;5050517;28;20033;-67
2023/07/20 07:54:52;;;;;;;18.70;12.32;;;;;;;18.12;86.52;101456.69;5052047;28;20036;-67
2023/07/20 07:57:18;;;;;;;18.05;11.93;;;;;;;18.10;86.35;101464.63;5051983;28;20488;-66
2023/07/20 07:59:43;;;;;;;19.52;12.82;;;;;;;18.08;85.91;101469.72;5051896;28;20036;-66
2023/07/20 08:02:08;;;;;;;18.60;13.00;;;;;;;18.20;84.27;101469.81;5051927;28;20106;-66
2023/07/20 08:04:34;;;;;;;19.33;11.93;;;;;;;18.43;84.70;101468.59;5051667;28;20417;-67
2023/07/20 08:06:59;;;;;;;18.38;11.48;;;;;;;18.61;83.68;101477.66;5051772;28;20099;-66
2023/07/20 08:09:25;;;;;;;17.58;12.18;;;;;;;18.71;82.95;101468.78;5051780;28;20132;-66
2023/07/20 08:11:50;;;;;;;17.92;12.45;;;;;;;18.73;83.68;101474.88;5051747;28;20108;-67
2023/07/20 08:14:16;;;;;;;18.27;12.02;;;;;;;18.75;80.85;101480.94;5051791;28;20029;-66
2023/07/20 08:16:41;;;;;;;19.63;12.40;;;;;;;18.83;81.58;101479.22;5051028;28;20021;-67
2023/07/20 08:19:06;;;;;;;18.48;11.90;;;;;;;18.87;80.03;101477.34;5051488;28;20028;-66
2023/07/20 08:21:32;;;;;;;17.00;11.80;;;;;;;19.10;81.56;101479.75;5051694;28;20601;-66
2023/07/20 08:23:57;;;;;;;18.30;12.20;;;;;;;19.36;80.63;101482.22;5051508;28;20061;-67
2023/07/20 08:26:23;;;;;;;18.08;11.80;;;;;;;19.42;77.11;101478.00;5051529;28;20605;-67
2023/07/20 08:28:49;;;;;;;17.23;11.75;;;;;;;19.46;77.62;101473.28;5051658;28;20057;-67
2023/07/20 08:31:14;;;;;;;18.17;12.43;;;;;;;19.54;78.61;101467.94;5051493;28;20029;-66
2023/07/20 08:33:39;;;;;;;17.83;11.52;;;;;;;19.44;77.04;101477.63;5051345;28;20021;-66
2023/07/20 08:36:05;;;;;;;16.88;11.50;;;;;;;19.33;78.36;101477.28;5051313;28;20484;-67
2023/07/20 08:38:31;;;;;;;17.63;11.20;;;;;;;18.99;74.32;101482.16;5051424;28;20087;-67
2023/07/20 08:40:56;;;;;;;16.83;11.23;;;;;;;18.82;77.60;101480.38;5051398;28;20063;-67
2023/07/20 08:43:26;;;;;;;17.50;11.60;;;;;;;18.69;78.04;101485.16;5051319;28;20152;-67
2023/07/20 08:45:54;;;;;;;17.60;11.40;;;;;;;18.59;79.19;101489.19;5051151;28;20039;-66
2023/07/20 08:48:20;;;;;;;16.90;11.82;;;;;;;18.53;79.33;101484.97;5051159;28;20025;-66
2023/07/20 08:50:49;;;;;;;16.38;11.27;;;;;;;18.50;79.69;101477.25;5051235;28;20052;-67
2023/07/20 08:53:14;;;;;;;16.27;11.30;;;;;;;18.58;81.27;101478.34;5051285;28;20037;-66
2023/07/20 08:55:43;;;;;;;16.73;11.25;;;;;;;18.61;80.01;101481.25;5051014;28;20040;-67
2023/07/20 08:58:10;;;;;;;19.63;12.10;;;;;;;18.60;79.99;101476.00;5049745;28;20021;-67
2023/07/20 09:00:36;;;;;;;17.02;11.52;;;;;;;18.61;79.67;101478.47;5051102;28;20079;-69
2023/07/20 09:03:02;;;;;;;17.27;11.90;;;;;;;18.69;78.55;101482.34;5049665;28;20029;-66
2023/07/20 09:05:28;;;;;;;17.88;11.60;;;;;;;18.84;79.70;101480.84;5050985;28;20094;-68
2023/07/20 09:07:53;;;;;;;17.65;10.98;;;;;;;18.85;77.83;101474.91;5051037;28;20413;-66
2023/07/20 09:10:23;;;;;;;17.70;11.40;;;;;;;19.04;77.23;101478.31;5051036;28;20100;-66
2023/07/20 09:12:49;;;;;;;16.33;11.20;;;;;;;19.22;76.20;101485.38;5050891;28;20025;-66
2023/07/20 09:15:14;;;;;;;17.08;10.73;;;;;;;19.48;74.96;101479.38;5050779;28;20365;-66
2023/07/20 09:17:45;;;;;;;18.08;11.30;;;;;;;19.64;73.40;101479.47;5051044;28;20326;-65
2023/07/20 09:20:10;;;;;;;17.13;10.55;;;;;;;19.56;72.83;101476.78;5049432;28;20023;-66
2023/07/20 09:22:39;;;;;;;17.80;10.90;;;;;;;19.37;72.97;101478.22;5050969;28;20392;-66
2023/07/20 09:25:14;;;;;;;18.25;11.27;;;;;;;19.37;74.50;101472.59;5050930;28;20079;-66
2023/07/20 09:27:49;;;;;;;17.98;11.05;;;;;;;19.31;71.59;101483.28;5051289;28;20111;-66
2023/07/20 09:30:16;;;;;;;17.83;12.32;;;;;;;19.55;73.37;101470.38;5055164;28;20112;-67
2023/07/20 09:32:45;;;;;;;16.08;10.85;;;;;;;19.68;70.44;101473.19;5054976;28;20052;-67
2023/07/20 09:35:14;;;;;;;21.00;15.50;;;;;;;19.89;69.39;101471.03;5055040;28;20063;-67
2023/07/20 09:37:45;;;;;;;21.23;14.68;;;;;;;20.14;69.84;101464.50;5055151;28;20033;-67
2023/07/20 09:40:11;;;;;;;16.83;11.13;;;;;;;20.14;69.65;101464.50;5055401;28;20033;-68
2023/07/20 09:42:37;;;;;;;16.85;11.60;;;;;;;20.16;69.44;101463.00;5054269;28;20028;-67
2023/07/20 09:45:02;;;;;;;17.65;11.52;;;;;;;20.29;67.46;101457.31;5052739;28;20025;-68
2023/07/20 09:47:29;;;;;;;15.45;10.70;;;;;;;20.41;66.90;101455.25;5054176;28;20098;-66
2023/07/20 09:50:00;;;;;;;15.70;10.15;;;;;;;20.54;69.08;101460.81;5054140;28;20091;-68
2023/07/20 09:52:27;;;;;;;15.40;10.48;;;;;;;20.60;67.42;101450.94;5054485;28;20112;-68
2023/07/20 09:54:53;;;;;;;16.05;10.48;;;;;;;20.85;66.52;101450.84;5054240;28;20025;-68
2023/07/20 09:57:20;;;;;;;15.70;10.73;;;;;;;20.67;64.07;101453.13;5054002;28;20036;-67
2023/07/20 09:59:46;;;;;;;14.75;9.63;;;;;;;20.65;65.55;101447.03;5054385;28;20029;-67
2023/07/20 10:02:22;;;;;;;18.23;11.50;;;;;;;20.72;66.39;101448.06;5053959;28;20053;-68
2023/07/20 10:04:53;;;;;;;16.25;10.13;;;;;;;20.45;63.95;101449.72;5053795;28;20493;-69
2023/07/20 10:07:21;;;;;;;14.73;9.85;;;;;;;20.60;65.56;101445.31;5054034;28;20124;-68
2023/07/20 10:09:48;;;;;;;16.42;10.20;;;;;;;20.81;64.90;101452.72;5053684;28;20124;-69
2023/07/20 10:12:15;;;;;;;15.90;10.18;;;;;;;20.86;65.46;101452.47;5052691;28;20153;-68
2023/07/20 10:14:49;;;;;;;16.55;10.10;;;;;;;20.83;65.47;101447.56;5053540;28;20027;-68
2023/07/20 10:17:17;;;;;;;13.93;9.50;;;;;;;20.85;63.86;101440.38;5053211;28;20634;-68
2023/07/20 10:19:46;;;;;;;16.20;10.55;;;;;;;21.15;64.51;101444.75;5053082;28;20050;-69
2023/07/20 10:22:19;;;;;;;15.13;9.77;;;;;;;21.13;64.20;101447.09;5052920;28;20036;-68
2023/07/20 10:24:46;;;;;;;14.15;9.40;;;;;;;21.18;63.17;101444.00;5052909;28;20104;-68
2023/07/20 10:27:12;;;;;;;15.18;9.70;;;;;;;21.54;62.60;101439.19;5052782;28;20048;-68
2023/07/20 10:29:40;;;;;;;15.60;9.77;;;;;;;21.71;60.98;101428.75;5053474;28;20420;-68
2023/07/20 10:32:06;;;;;;;15.23;9.93;;;;;;;21.70;60.73;101432.75;5053800;28;20036;-68
2023/07/20 10:34:32;;;;;;;14.60;9.15;;;;;;;21.67;61.45;101439.94;5053527;28;20091;-68
2023/07/20 10:36:57;;;;;;;13.68;9.20;;;;;;;21.73;61.36;101432.81;5053878;28;20025;-68
2023/07/20 10:39:24;;;;;;;15.15;9.05;;;;;;;21.32;58.93;101432.25;5053006;28;20037;-67
2023/07/20 10:41:49;;;;;;;16.05;9.82;;;;;;;21.08;61.38;101422.88;5053629;28;20017;-68
2023/07/20 10:44:20;;;;;;;14.38;9.60;;;;;;;21.27;61.88;101422.09;5053500;28;20206;-67
2023/07/20 10:46:46;;;;;;;15.35;9.43;;;;;;;21.50;61.44;101425.03;5053568;28;20111;-67
2023/07/20 10:49:14;;;;;;;15.25;9.70;;;;;;;21.62;60.84;101423.31;5053312;28;20154;-68
2023/07/20 10:51:43;;;;;;;16.95;9.85;;;;;;;21.60;59.98;101425.69;5053695;28;20033;-68
2023/07/20 10:54:29;;;;;;;14.68;8.90;;;;;;;21.72;61.50;101425.56;5054160;28;20388;-67
2023/07/20 10:56:56;;;;;;;18.40;10.20;;;;;;;22.01;58.12;101416.91;5050251;28;20033;-67
2023/07/20 10:59:24;;;;;;;29.30;11.23;;;;;;;22.22;58.14;101411.69;5053715;28;20021;-68
2023/07/20 11:01:55;;;;;;;17.65;9.60;;;;;;;22.13;57.87;101417.56;5051831;28;20033;-69